Time;durP1;ratioP1;P1;durP2;ratioP2;P2;SDS_P1;SDS_P2;PMS_P1;PMS_P2;Temp;Humidity;BMP_temperature;BMP_pressure;BME280_temperature;BME280_humidity;BME280_pressure;Samples;Min_cycle;Max_cycle;Signal;HPM_P1;HPM_P2
2021/06/10 00:00:00;;;;;;;5.43;3.20;;;18.80;99.90;;;;;;5048895;28;20183;-76
2021/06/10 00:02:27;;;;;;;8.53;3.50;;;18.80;99.90;;;;;;5068805;28;20274;-75
2021/06/10 00:04:53;;;;;;;6.73;3.50;;;18.90;99.90;;;;;;5065602;28;20184;-76
2021/06/10 00:07:20;;;;;;;5.57;3.50;;;19.00;99.90;;;;;;5067094;28;20176;-76
2021/06/10 00:09:46;;;;;;;8.50;3.43;;;19.00;99.90;;;;;;5047819;28;20302;-76
2021/06/10 00:12:16;;;;;;;5.87;3.60;;;18.90;99.90;;;;;;5064212;28;20311;-76
2021/06/10 00:14:43;;;;;;;7.60;3.37;;;18.80;99.90;;;;;;5052224;28;20173;-76
2021/06/10 00:17:09;;;;;;;6.37;3.53;;;18.70;99.90;;;;;;5047909;28;20175;-76
2021/06/10 00:19:35;;;;;;;9.13;3.30;;;18.70;99.90;;;;;;5048898;28;20188;-77
2021/06/10 00:22:01;;;;;;;7.13;3.60;;;18.60;99.90;;;;;;5044067;28;20183;-76
2021/06/10 00:24:26;;;;;;;7.00;3.63;;;18.60;99.90;;;;;;5067094;28;20255;-76
2021/06/10 00:26:52;;;;;;;7.50;3.73;;;18.50;99.90;;;;;;5047569;28;20180;-76
2021/06/10 00:29:18;;;;;;;7.67;3.97;;;18.50;99.90;;;;;;5060801;28;20683;-76
2021/06/10 00:31:43;;;;;;;7.10;3.90;;;18.50;99.90;;;;;;5034667;28;20187;-76
2021/06/10 00:34:09;;;;;;;7.40;3.70;;;18.50;99.90;;;;;;5044961;28;20180;-77
2021/06/10 00:36:35;;;;;;;7.53;3.80;;;18.50;99.90;;;;;;5047191;28;20669;-77
2021/06/10 00:39:02;;;;;;;11.43;4.10;;;18.40;99.90;;;;;;5066091;28;20195;-76
2021/06/10 00:41:32;;;;;;;8.77;3.80;;;18.30;99.90;;;;;;5068576;28;20203;-75
2021/06/10 00:44:00;;;;;;;7.00;3.70;;;18.10;99.90;;;;;;5062627;28;20180;-76
2021/06/10 00:46:27;;;;;;;8.50;4.10;;;18.00;99.90;;;;;;5068041;28;20275;-76
2021/06/10 00:48:53;;;;;;;6.83;3.80;;;17.90;99.90;;;;;;5064742;28;20208;-75
2021/06/10 00:51:19;;;;;;;7.07;3.87;;;17.80;99.90;;;;;;5050371;28;20585;-76
2021/06/10 00:53:45;;;;;;;8.60;4.00;;;17.80;99.90;;;;;;5048313;28;20269;-74
2021/06/10 00:56:11;;;;;;;7.60;3.97;;;17.80;99.90;;;;;;5067348;28;20273;-74
2021/06/10 00:58:37;;;;;;;7.90;3.77;;;17.90;99.90;;;;;;5069273;28;20744;-74
2021/06/10 01:01:04;;;;;;;7.13;4.00;;;17.80;99.90;;;;;;5049450;28;20240;-76
2021/06/10 01:03:30;;;;;;;7.90;4.17;;;17.80;99.90;;;;;;5065107;28;20192;-75
2021/06/10 01:05:58;;;;;;;9.07;4.40;;;17.90;99.90;;;;;;5050091;28;20187;-76
2021/06/10 01:08:38;;;;;;;6.33;4.00;;;17.90;99.90;;;;;;5069193;28;20716;-75
2021/06/10 01:11:13;;;;;;;7.17;4.00;;;18.00;99.90;;;;;;5065553;28;20194;-73
2021/06/10 01:13:51;;;;;;;8.37;4.07;;;18.00;99.90;;;;;;5049438;28;20191;-73
2021/06/10 01:16:21;;;;;;;8.80;4.07;;;18.10;99.90;;;;;;5064997;28;20545;-75
2021/06/10 01:18:48;;;;;;;8.60;4.17;;;18.20;99.90;;;;;;5068615;28;20179;-76
2021/06/10 01:21:17;;;;;;;8.00;4.40;;;18.30;99.90;;;;;;5068378;28;20199;-75
2021/06/10 01:24:01;;;;;;;7.23;3.80;;;18.40;99.90;;;;;;5065877;28;20187;-76
2021/06/10 01:26:39;;;;;;;10.27;4.20;;;18.30;99.90;;;;;;5068375;28;20190;-77
2021/06/10 01:29:10;;;;;;;6.53;3.90;;;18.20;99.90;;;;;;5063361;28;20211;-74
2021/06/10 01:31:36;;;;;;;8.57;3.80;;;18.20;99.90;;;;;;5070571;28;20200;-77
2021/06/10 01:34:06;;;;;;;7.93;4.13;;;18.10;99.90;;;;;;5052347;28;20191;-75
2021/06/10 01:36:34;;;;;;;10.77;3.93;;;18.10;99.90;;;;;;5067530;28;20186;-73
2021/06/10 01:39:05;;;;;;;7.83;3.87;;;18.10;99.90;;;;;;5066973;28;20209;-73
2021/06/10 01:41:32;;;;;;;7.67;3.93;;;18.00;99.90;;;;;;5066640;28;20196;-75
2021/06/10 01:44:00;;;;;;;7.93;4.23;;;18.10;99.90;;;;;;5065598;28;20277;-72
2021/06/10 01:46:27;;;;;;;9.60;3.87;;;18.00;99.90;;;;;;5066199;28;20183;-73
2021/06/10 01:48:53;;;;;;;9.90;3.87;;;18.00;99.90;;;;;;5072663;28;20187;-73
2021/06/10 01:51:25;;;;;;;10.40;4.20;;;18.00;99.90;;;;;;5051466;28;20206;-75
2021/06/10 01:53:52;;;;;;;7.97;3.80;;;17.90;99.90;;;;;;5052858;28;20173;-75
2021/06/10 01:56:20;;;;;;;7.87;4.50;;;17.90;99.90;;;;;;5054378;28;20177;-75
2021/06/10 01:58:48;;;;;;;8.20;3.90;;;17.80;99.90;;;;;;5020775;28;20192;-76
2021/06/10 02:01:15;;;;;;;8.47;4.50;;;17.80;99.90;;;;;;5053749;28;20191;-76
2021/06/10 02:03:43;;;;;;;9.03;4.27;;;17.80;99.90;;;;;;5051462;28;20639;-76
2021/06/10 02:06:10;;;;;;;7.57;3.83;;;17.80;99.90;;;;;;5054186;28;20237;-76
2021/06/10 02:08:40;;;;;;;7.67;4.07;;;17.80;99.90;;;;;;5036710;28;20319;-74
2021/06/10 02:11:06;;;;;;;5.47;3.57;;;17.70;99.90;;;;;;5051765;28;20172;-74
2021/06/10 02:13:33;;;;;;;7.30;4.20;;;17.60;99.90;;;;;;5051315;28;20279;-74
2021/06/10 02:16:04;;;;;;;8.13;4.10;;;17.50;99.90;;;;;;5050590;28;20246;-74
2021/06/10 02:18:33;;;;;;;6.97;4.00;;;17.50;99.90;;;;;;5034621;28;20193;-73
2021/06/10 02:21:05;;;;;;;7.73;4.00;;;17.50;99.90;;;;;;5050155;28;20188;-74
2021/06/10 02:23:30;;;;;;;6.37;3.90;;;17.40;99.90;;;;;;5051441;28;20188;-74
2021/06/10 02:25:57;;;;;;;11.23;4.33;;;17.30;99.90;;;;;;5034846;28;20188;-73
2021/06/10 02:28:23;;;;;;;11.30;4.57;;;17.30;99.90;;;;;;5053817;28;20215;-77
2021/06/10 02:30:49;;;;;;;9.03;4.43;;;17.30;99.90;;;;;;5052499;28;20196;-77
2021/06/10 02:33:17;;;;;;;7.37;4.30;;;17.30;99.90;;;;;;5052432;28;20262;-77
2021/06/10 02:35:43;;;;;;;10.30;5.70;;;17.40;99.90;;;;;;5021815;28;20212;-77
2021/06/10 02:38:10;;;;;;;10.20;5.00;;;17.40;99.90;;;;;;5037437;28;20191;-76
2021/06/10 02:43:30;;;;;;;8.17;5.13;;;17.50;99.90;;;;;;5008092;28;20549;-76
2021/06/10 02:46:01;;;;;;;9.20;5.70;;;17.60;99.90;;;;;;5022649;28;20205;-75
2021/06/10 02:48:29;;;;;;;12.27;6.10;;;17.60;99.90;;;;;;5017447;28;20219;-76
2021/06/10 02:50:58;;;;;;;11.57;5.50;;;17.50;99.90;;;;;;5010471;28;20616;-77
2021/06/10 02:53:27;;;;;;;10.93;5.60;;;17.50;99.90;;;;;;5020335;28;20638;-77
2021/06/10 02:55:54;;;;;;;10.97;5.80;;;17.50;99.90;;;;;;5024851;28;20181;-76
2021/06/10 02:58:23;;;;;;;10.23;5.80;;;17.50;99.90;;;;;;5000835;28;20185;-76
2021/06/10 03:00:49;;;;;;;12.50;7.07;;;17.50;99.90;;;;;;5011830;28;20549;-76
2021/06/10 03:03:16;;;;;;;12.80;7.30;;;17.50;99.90;;;;;;4998421;28;20230;-77
2021/06/10 03:05:43;;;;;;;14.33;8.10;;;17.50;99.90;;;;;;5016569;28;20180;-77
2021/06/10 03:08:18;;;;;;;13.43;7.80;;;17.50;99.90;;;;;;5026179;28;20231;-74
2021/06/10 03:10:45;;;;;;;13.77;8.40;;;17.50;99.90;;;;;;5016537;28;20196;-75
2021/06/10 03:13:14;;;;;;;12.43;8.50;;;17.50;99.90;;;;;;5013844;28;20659;-72
2021/06/10 03:15:41;;;;;;;12.73;7.27;;;17.50;99.90;;;;;;5017005;28;20185;-73
2021/06/10 03:18:07;;;;;;;13.13;7.40;;;17.50;99.90;;;;;;5011735;28;20189;-73
2021/06/10 03:20:34;;;;;;;14.50;8.53;;;17.50;99.90;;;;;;5015446;28;20281;-73
2021/06/10 03:23:01;;;;;;;16.37;8.07;;;17.60;99.90;;;;;;5010495;28;20200;-73
2021/06/10 03:25:27;;;;;;;13.27;8.53;;;17.60;99.90;;;;;;5020634;28;20208;-74
2021/06/10 03:27:53;;;;;;;15.83;8.53;;;17.50;99.90;;;;;;5016522;28;20189;-74
2021/06/10 03:30:20;;;;;;;15.07;8.23;;;17.40;99.90;;;;;;5015901;28;20194;-74
2021/06/10 03:32:46;;;;;;;15.90;8.33;;;17.30;99.90;;;;;;5012945;28;20203;-73
2021/06/10 03:35:13;;;;;;;14.23;8.00;;;17.40;99.90;;;;;;5026742;28;20224;-75
2021/06/10 03:37:41;;;;;;;13.20;8.70;;;17.40;99.90;;;;;;5018650;28;20265;-73
2021/06/10 03:40:09;;;;;;;14.63;8.77;;;17.30;99.90;;;;;;5016352;28;20702;-77
2021/06/10 03:42:36;;;;;;;14.57;8.23;;;17.40;99.90;;;;;;5025135;28;20224;-75
2021/06/10 03:45:03;;;;;;;11.20;7.70;;;17.30;99.90;;;;;;5029562;28;20201;-75
2021/06/10 03:47:30;;;;;;;18.30;9.00;;;17.30;99.90;;;;;;5034738;28;20354;-72
2021/06/10 03:49:56;;;;;;;11.87;7.70;;;17.40;99.90;;;;;;5030960;28;20274;-74
2021/06/10 03:52:26;;;;;;;12.57;8.43;;;17.40;99.90;;;;;;5032134;28;20205;-72
2021/06/10 03:54:52;;;;;;;14.07;9.27;;;17.40;99.90;;;;;;5030462;28;20192;-72
2021/06/10 03:57:17;;;;;;;16.17;10.00;;;17.50;99.90;;;;;;5029436;28;20181;-75
2021/06/10 03:59:43;;;;;;;14.10;9.10;;;17.60;99.90;;;;;;5017719;28;20192;-74
2021/06/10 04:02:09;;;;;;;14.33;8.97;;;17.60;99.90;;;;;;5030826;28;20277;-74
2021/06/10 04:04:35;;;;;;;18.73;9.73;;;17.80;99.90;;;;;;5029003;28;20647;-74
2021/06/10 04:07:00;;;;;;;14.17;9.87;;;17.90;99.90;;;;;;5027784;28;20192;-76
2021/06/10 04:09:26;;;;;;;12.93;9.00;;;18.00;99.90;;;;;;5029042;28;20263;-76
2021/06/10 04:11:53;;;;;;;18.37;9.00;;;17.90;99.90;;;;;;5028531;28;20179;-77
2021/06/10 04:14:18;;;;;;;13.43;9.13;;;17.90;99.90;;;;;;5030548;28;20196;-74
2021/06/10 04:16:45;;;;;;;14.17;9.23;;;17.90;99.90;;;;;;5032528;28;20655;-77
2021/06/10 04:19:12;;;;;;;15.73;8.70;;;17.80;99.90;;;;;;5032424;28;20232;-73
2021/06/10 04:21:38;;;;;;;14.67;9.27;;;17.90;99.90;;;;;;5020622;28;20181;-76
2021/06/10 04:24:04;;;;;;;14.97;8.60;;;18.40;99.90;;;;;;5032379;28;20557;-77
2021/06/10 04:26:30;;;;;;;15.10;8.57;;;19.20;99.90;;;;;;5031024;28;20663;-77
2021/06/10 04:28:56;;;;;;;12.80;8.20;;;20.20;99.90;;;;;;5031550;28;20223;-75
2021/06/10 04:31:22;;;;;;;14.40;8.03;;;21.00;99.90;;;;;;5032583;28;20189;-74
2021/06/10 04:33:49;;;;;;;13.13;7.80;;;21.70;99.90;;;;;;5029753;28;20516;-72
2021/06/10 04:36:16;;;;;;;12.30;7.23;;;22.40;99.90;;;;;;5019567;28;20204;-72
2021/06/10 04:38:42;;;;;;;12.20;7.47;;;23.10;99.90;;;;;;5023693;28;20599;-73
2021/06/10 04:41:09;;;;;;;9.87;6.77;;;23.60;99.90;;;;;;5029990;28;20205;-73
2021/06/10 04:43:35;;;;;;;12.97;6.73;;;24.00;99.90;;;;;;5052508;28;20654;-77
2021/06/10 04:46:02;;;;;;;10.87;6.40;;;24.20;99.90;;;;;;5034432;28;20234;-75
2021/06/10 04:48:28;;;;;;;13.90;6.67;;;24.40;99.90;;;;;;5034786;28;20210;-77
2021/06/10 04:50:55;;;;;;;10.63;5.90;;;24.80;99.90;;;;;;5049042;28;20192;-73
2021/06/10 04:53:21;;;;;;;11.20;6.63;;;25.30;99.90;;;;;;5050866;28;20183;-73
2021/06/10 04:55:47;;;;;;;11.88;6.40;;;26.10;99.90;;;;;;5048826;28;20228;-76
2021/06/10 04:58:13;;;;;;;13.70;6.57;;;26.70;99.90;;;;;;5051225;28;20326;-76
2021/06/10 05:00:39;;;;;;;10.23;6.00;;;27.10;99.90;;;;;;5053445;28;20259;-76
2021/06/10 05:03:06;;;;;;;13.98;6.90;;;27.80;99.90;;;;;;5051435;28;20263;-76
2021/06/10 05:05:32;;;;;;;12.55;6.70;;;28.40;99.90;;;;;;5048011;28;20180;-72
2021/06/10 05:07:58;;;;;;;14.43;5.70;;;28.80;99.90;;;;;;5045333;28;20707;-72
2021/06/10 05:10:23;;;;;;;12.32;6.60;;;29.10;99.90;;;;;;5048877;28;20172;-72
2021/06/10 05:12:49;;;;;;;12.35;6.78;;;29.70;99.70;;;;;;5046810;28;20192;-73
2021/06/10 05:15:15;;;;;;;13.02;8.23;;;30.20;98.10;;;;;;5032249;28;20208;-75
2021/06/10 05:17:41;;;;;;;11.52;8.13;;;30.60;96.70;;;;;;5033689;28;20534;-72
2021/06/10 05:20:08;;;;;;;13.50;9.63;;;30.90;95.40;;;;;;5045428;28;20199;-72
2021/06/10 05:22:33;;;;;;;14.02;9.27;;;31.20;94.30;;;;;;5049110;28;20219;-73
2021/06/10 05:24:59;;;;;;;12.48;8.38;;;31.40;93.10;;;;;;5053575;28;20235;-76
2021/06/10 05:27:25;;;;;;;14.82;8.98;;;31.70;92.10;;;;;;5053288;28;20590;-75
2021/06/10 05:29:51;;;;;;;15.73;8.52;;;32.10;90.40;;;;;;5038830;28;20196;-74
2021/06/10 05:32:16;;;;;;;13.05;7.78;;;32.40;86.70;;;;;;5033850;28;20181;-73
2021/06/10 05:34:42;;;;;;;11.95;6.78;;;32.40;86.60;;;;;;5053469;28;20689;-72
2021/06/10 05:37:08;;;;;;;14.30;8.02;;;32.50;83.80;;;;;;5051141;28;20200;-72
2021/06/10 05:39:33;;;;;;;11.50;7.07;;;32.60;81.10;;;;;;5052678;28;20188;-72
2021/06/10 05:41:59;;;;;;;13.50;6.80;;;32.70;78.50;;;;;;5052367;28;20247;-73
2021/06/10 05:44:25;;;;;;;12.52;6.10;;;33.20;76.40;;;;;;5223845;22;20915;-72
2021/06/10 05:46:51;;;;;;;11.07;5.65;;;32.90;70.00;;;;;;5061598;28;20758;-73
2021/06/10 05:49:18;;;;;;;11.35;5.28;;;32.50;72.70;;;;;;5069243;28;20208;-73
2021/06/10 05:51:44;;;;;;;8.88;5.22;;;32.90;70.80;;;;;;5072136;28;20175;-72
2021/06/10 05:54:10;;;;;;;15.70;4.70;;;32.70;67.80;;;;;;5066429;28;20199;-72
2021/06/10 05:56:36;;;;;;;10.88;4.22;;;33.00;68.40;;;;;;5068507;28;20186;-73
2021/06/10 05:59:02;;;;;;;11.98;4.15;;;33.50;68.40;;;;;;5069827;28;20555;-72
2021/06/10 06:01:28;;;;;;;8.65;4.00;;;33.80;62.10;;;;;;5070579;28;20664;-72
2021/06/10 06:03:53;;;;;;;6.13;2.60;;;34.10;61.10;;;;;;5070750;28;20192;-73
2021/06/10 06:06:19;;;;;;;9.48;2.90;;;34.30;58.20;;;;;;5067559;28;20188;-73
2021/06/10 06:08:46;;;;;;;6.03;2.38;;;34.60;57.90;;;;;;5071276;28;20211;-72
2021/06/10 06:11:12;;;;;;;7.10;2.75;;;34.60;58.20;;;;;;5038790;28;20274;-72
2021/06/10 06:13:48;;;;;;;10.25;2.47;;;34.70;55.30;;;;;;5069949;28;20195;-72
2021/06/10 06:16:17;;;;;;;10.32;2.60;;;34.60;54.90;;;;;;5070780;28;20192;-72
2021/06/10 06:18:43;;;;;;;7.18;2.80;;;34.80;56.00;;;;;;5066742;28;20192;-72
2021/06/10 06:21:10;;;;;;;11.63;3.10;;;35.00;55.60;;;;;;5068812;28;20191;-72
2021/06/10 06:23:35;;;;;;;8.35;3.25;;;34.80;55.50;;;;;;5068324;28;20596;-73
2021/06/10 06:26:02;;;;;;;9.00;2.75;;;35.40;55.20;;;;;;5065993;28;20247;-73
2021/06/10 06:28:27;;;;;;;8.52;2.80;;;35.20;56.40;;;;;;5065416;28;20211;-73
2021/06/10 06:30:53;;;;;;;7.53;2.70;;;35.20;54.50;;;;;;5068757;28;20188;-73
2021/06/10 06:33:19;;;;;;;9.20;2.50;;;35.20;54.80;;;;;;5068805;28;20522;-73
2021/06/10 06:35:45;;;;;;;11.38;2.25;;;34.50;53.20;;;;;;5066978;28;20260;-72
2021/06/10 06:38:11;;;;;;;7.78;2.42;;;34.10;54.20;;;;;;5071500;28;20168;-77
2021/06/10 06:40:38;;;;;;;9.65;2.33;;;33.80;55.90;;;;;;5069603;28;20265;-77
2021/06/10 06:43:05;;;;;;;8.77;2.45;;;34.20;54.60;;;;;;5072250;28;20187;-78
2021/06/10 06:45:31;;;;;;;8.02;2.10;;;34.70;54.20;;;;;;5069611;28;20228;-75
2021/06/10 06:47:57;;;;;;;11.43;2.40;;;34.50;54.00;;;;;;5066326;28;20301;-72
2021/06/10 06:50:23;;;;;;;6.22;2.50;;;35.00;53.70;;;;;;5071789;28;20188;-74
2021/06/10 06:52:49;;;;;;;7.60;2.22;;;35.50;54.50;;;;;;5066859;28;20243;-74
2021/06/10 06:55:14;;;;;;;10.90;2.60;;;35.30;53.30;;;;;;5070466;28;20176;-73
2021/06/10 06:57:40;;;;;;;10.88;3.00;;;35.10;53.70;;;;;;5068385;28;20275;-73
2021/06/10 07:00:06;;;;;;;8.27;2.50;;;35.30;54.40;;;;;;5068316;28;20664;-73
2021/06/10 07:02:32;;;;;;;7.47;2.70;;;35.40;54.60;;;;;;5048371;28;20617;-73
2021/06/10 07:04:58;;;;;;;7.65;2.33;;;35.40;54.40;;;;;;5049330;28;20213;-74
2021/06/10 07:07:24;;;;;;;8.30;2.10;;;34.90;54.70;;;;;;5071825;28;20233;-73
2021/06/10 07:09:49;;;;;;;8.55;2.58;;;35.40;56.00;;;;;;5066144;28;20196;-75
2021/06/10 07:12:15;;;;;;;11.30;2.58;;;35.50;54.50;;;;;;5070832;28;20180;-76
2021/06/10 07:14:41;;;;;;;9.65;2.72;;;36.20;54.60;;;;;;5064225;28;20519;-75
2021/06/10 07:17:07;;;;;;;7.72;2.65;;;36.70;53.60;;;;;;5069554;28;20176;-75
2021/06/10 07:19:32;;;;;;;10.13;2.30;;;37.00;53.30;;;;;;5049547;28;20277;-76
2021/06/10 07:21:58;;;;;;;8.93;2.70;;;37.50;53.30;;;;;;5051638;28;20218;-72
2021/06/10 07:24:24;;;;;;;6.82;1.90;;;38.20;52.30;;;;;;5066892;28;20753;-73
2021/06/10 07:26:49;;;;;;;9.38;2.17;;;39.00;51.30;;;;;;5068481;28;20188;-72
2021/06/10 07:29:16;;;;;;;10.27;1.77;;;39.90;51.50;;;;;;5066478;28;20578;-75
2021/06/10 07:31:43;;;;;;;6.95;1.77;;;40.40;49.80;;;;;;5052887;28;20203;-73
2021/06/10 07:34:09;;;;;;;6.70;1.40;;;39.60;49.40;;;;;;5052253;28;20685;-76
2021/06/10 07:36:35;;;;;;;7.05;1.50;;;39.60;49.70;;;;;;5068186;28;20211;-76
2021/06/10 07:39:03;;;;;;;7.15;1.60;;;40.20;49.30;;;;;;5069958;28;20187;-73
2021/06/10 07:41:29;;;;;;;5.82;1.50;;;40.30;48.50;;;;;;5068086;28;20199;-73
2021/06/10 07:43:56;;;;;;;10.07;2.20;;;40.90;48.20;;;;;;5084194;22;20237;-75
2021/06/10 07:46:21;;;;;;;8.27;1.73;;;40.90;48.00;;;;;;5086406;28;20191;-76
2021/06/10 07:48:47;;;;;;;9.80;1.77;;;40.90;47.60;;;;;;5088595;28;20210;-76
2021/06/10 07:51:14;;;;;;;9.50;1.75;;;41.10;47.60;;;;;;5090549;28;20180;-72
2021/06/10 07:53:41;;;;;;;9.02;1.50;;;38.50;48.80;;;;;;5087688;28;20615;-74
2021/06/10 07:56:07;;;;;;;7.38;1.40;;;36.50;51.00;;;;;;5090317;28;20305;-75
2021/06/10 07:58:34;;;;;;;8.15;1.77;;;35.90;53.10;;;;;;5087624;28;20209;-73
2021/06/10 08:01:00;;;;;;;5.43;1.65;;;37.10;52.30;;;;;;5091331;28;20183;-72
2021/06/10 08:03:25;;;;;;;8.73;1.75;;;37.20;51.60;;;;;;5089026;28;20642;-76
2021/06/10 08:05:52;;;;;;;5.75;1.52;;;38.20;51.80;;;;;;5087398;28;20191;-76
2021/06/10 08:08:19;;;;;;;4.45;1.50;;;38.90;50.90;;;;;;5072932;28;20201;-75
2021/06/10 08:10:45;;;;;;;4.65;1.52;;;39.60;49.50;;;;;;5087146;28;20262;-76
2021/06/10 08:13:14;;;;;;;2.58;1.35;;;36.40;51.70;;;;;;5087311;28;20660;-76
2021/06/10 08:15:39;;;;;;;7.75;1.77;;;36.00;55.30;;;;;;5088796;28;20202;-77
2021/06/10 08:18:06;;;;;;;7.25;2.03;;;35.40;54.40;;;;;;5090399;28;20202;-73
2021/06/10 08:20:32;;;;;;;5.30;1.80;;;37.40;53.20;;;;;;5086197;28;20224;-73
2021/06/10 08:22:59;;;;;;;8.88;1.80;;;36.80;53.70;;;;;;5088000;28;20276;-73
2021/06/10 08:25:30;;;;;;;6.20;1.70;;;38.90;51.00;;;;;;5085383;28;20218;-72
2021/06/10 08:27:57;;;;;;;6.05;1.90;;;40.00;48.90;;;;;;5087645;28;20565;-73
2021/06/10 08:30:24;;;;;;;5.85;1.70;;;38.50;50.30;;;;;;5105363;28;20262;-73
2021/06/10 08:32:50;;;;;;;3.80;1.70;;;38.50;49.90;;;;;;5086169;28;20187;-73
2021/06/10 08:35:16;;;;;;;6.85;1.90;;;38.80;50.70;;;;;;5087523;28;20588;-73
2021/06/10 08:37:42;;;;;;;5.18;1.80;;;37.50;52.10;;;;;;5085616;28;20199;-73
2021/06/10 08:40:09;;;;;;;6.75;2.13;;;38.80;51.50;;;;;;5088528;28;20197;-77
2021/06/10 08:42:39;;;;;;;5.47;1.40;;;38.60;51.00;;;;;;5085648;28;20182;-72
2021/06/10 08:45:09;;;;;;;5.63;1.55;;;40.00;49.20;;;;;;5084091;28;20697;-73
2021/06/10 08:47:38;;;;;;;4.05;1.35;;;40.00;48.50;;;;;;5088235;28;20203;-72
2021/06/10 08:50:05;;;;;;;3.70;1.25;;;38.90;49.90;;;;;;5087658;28;20255;-73
2021/06/10 08:52:32;;;;;;;4.68;1.23;;;37.90;49.80;;;;;;5086350;28;20641;-73
2021/06/10 08:54:58;;;;;;;3.60;1.30;;;38.40;51.20;;;;;;5085205;28;20190;-75
2021/06/10 08:57:24;;;;;;;4.32;1.42;;;39.40;49.60;;;;;;5089053;28;20182;-72
2021/06/10 08:59:50;;;;;;;1.88;1.20;;;38.80;50.80;;;;;;5093303;28;20180;-73
2021/06/10 09:02:16;;;;;;;3.78;1.23;;;38.50;51.70;;;;;;5089541;28;20194;-73
2021/06/10 09:04:42;;;;;;;4.03;1.30;;;39.60;49.40;;;;;;5090324;28;20175;-73
2021/06/10 09:07:09;;;;;;;2.58;1.17;;;40.30;48.10;;;;;;5107115;28;20652;-73
2021/06/10 09:09:36;;;;;;;3.72;1.15;;;39.80;48.40;;;;;;5089160;28;20259;-73
2021/06/10 09:12:06;;;;;;;3.10;1.30;;;38.10;48.90;;;;;;5089663;28;20239;-73
2021/06/10 09:14:57;;;;;;;3.78;1.20;;;36.90;50.00;;;;;;5088634;28;20190;-73
2021/06/10 09:17:42;;;;;;;3.90;1.08;;;33.80;54.70;;;;;;5087338;28;20637;-72
2021/06/10 09:20:22;;;;;;;4.78;1.00;;;35.20;54.80;;;;;;5106439;28;20549;-73
2021/06/10 09:26:17;;;;;;;3.40;1.55;;;35.60;53.30;;;;;;5089077;28;20205;-72
2021/06/10 09:28:43;;;;;;;2.85;1.13;;;37.20;50.90;;;;;;5092224;28;20203;-74
2021/06/10 09:31:09;;;;;;;3.60;1.20;;;36.70;51.80;;;;;;5091535;28;20195;-73
2021/06/10 09:33:43;;;;;;;2.75;0.90;;;38.30;50.80;;;;;;5091457;28;20186;-74
2021/06/10 09:36:15;;;;;;;5.93;1.30;;;39.50;50.10;;;;;;5106752;28;20190;-75
2021/06/10 09:38:41;;;;;;;2.08;1.05;;;39.50;48.30;;;;;;5094272;28;20270;-76
2021/06/10 09:41:07;;;;;;;2.35;1.30;;;38.30;50.50;;;;;;5091468;28;20614;-76
2021/06/10 09:43:47;;;;;;;5.28;1.10;;;38.70;50.70;;;;;;5087061;28;20171;-75
2021/06/10 09:46:13;;;;;;;3.70;1.40;;;36.80;52.60;;;;;;5091297;28;20194;-75
2021/06/10 09:48:39;;;;;;;3.10;1.40;;;35.20;53.80;;;;;;5092027;28;20619;-75
2021/06/10 09:51:05;;;;;;;2.95;1.20;;;34.00;56.40;;;;;;5092447;28;20262;-76
2021/06/10 09:53:34;;;;;;;2.67;1.20;;;35.70;55.90;;;;;;5089912;28;20301;-76
2021/06/10 09:56:08;;;;;;;3.67;1.08;;;36.50;54.50;;;;;;5091702;28;20583;-75
2021/06/10 09:58:39;;;;;;;2.45;0.85;;;36.20;55.40;;;;;;5086254;28;20188;-76
2021/06/10 10:01:17;;;;;;;2.60;1.00;;;36.40;55.40;;;;;;5092101;28;20195;-72
2021/06/10 10:03:45;;;;;;;6.68;1.00;;;36.70;53.80;;;;;;5090749;28;20183;-72
2021/06/10 10:06:20;;;;;;;3.13;1.00;;;35.60;55.40;;;;;;5088093;28;20184;-75
2021/06/10 10:08:55;;;;;;;1.52;0.70;;;35.80;53.50;;;;;;5091625;28;20229;-76
2021/06/10 10:11:22;;;;;;;1.38;0.73;;;35.20;52.50;;;;;;5090901;28;20182;-75
2021/06/10 10:16:42;;;;;;;2.25;0.68;;;36.50;54.30;;;;;;5010445;28;20301;-72
2021/06/10 10:19:16;;;;;;;3.67;0.70;;;35.60;53.10;;;;;;5028374;28;20716;-73
2021/06/10 10:21:42;;;;;;;2.75;0.88;;;34.40;55.80;;;;;;5012837;28;20185;-74
2021/06/10 10:24:10;;;;;;;2.05;1.00;;;33.40;57.30;;;;;;5013449;28;20201;-75
2021/06/10 10:26:37;;;;;;;3.58;1.40;;;32.20;58.30;;;;;;5013649;28;20194;-77
2021/06/10 10:29:06;;;;;;;2.08;1.05;;;31.90;59.60;;;;;;5011275;28;20197;-75
2021/06/10 10:31:33;;;;;;;2.45;1.15;;;32.10;58.40;;;;;;5012760;28;20537;-76
2021/06/10 10:33:59;;;;;;;2.15;1.05;;;33.90;57.30;;;;;;5014793;28;21774;-72
2021/06/10 10:36:31;;;;;;;3.67;1.00;;;35.50;55.60;;;;;;5012149;28;20228;-73
2021/06/10 10:39:02;;;;;;;1.73;0.82;;;36.80;53.90;;;;;;5007963;28;20190;-76
2021/06/10 10:41:29;;;;;;;3.65;1.10;;;38.30;52.00;;;;;;5012064;28;20186;-76
2021/06/10 10:44:09;;;;;;;3.60;1.10;;;35.50;55.00;;;;;;5028872;28;20261;-73
2021/06/10 10:46:35;;;;;;;5.35;1.30;;;36.90;53.50;;;;;;5020819;28;20192;-72
2021/06/10 10:49:20;;;;;;;3.78;1.20;;;37.90;52.60;;;;;;5012817;28;20268;-72
2021/06/10 10:51:46;;;;;;;3.75;1.30;;;39.20;51.30;;;;;;5009927;28;20221;-73
2021/06/10 10:54:34;;;;;;;5.63;1.30;;;39.50;52.10;;;;;;5012897;28;20253;-77
2021/06/10 10:57:01;;;;;;;5.63;1.15;;;38.10;52.50;;;;;;5011323;28;20185;-75
2021/06/10 10:59:39;;;;;;;5.30;1.20;;;39.20;52.00;;;;;;5028725;28;20252;-75
2021/06/10 11:02:06;;;;;;;3.38;1.25;;;40.00;50.50;;;;;;5023719;28;20190;-75
2021/06/10 11:04:55;;;;;;;3.35;0.95;;;40.60;48.40;;;;;;5014032;28;20614;-77
2021/06/10 11:07:36;;;;;;;3.40;1.00;;;40.10;47.50;;;;;;5011819;28;20282;-77
2021/06/10 11:10:04;;;;;;;3.25;1.27;;;39.00;49.70;;;;;;5011264;28;20202;-73
2021/06/10 11:12:51;;;;;;;3.13;1.15;;;39.50;48.90;;;;;;5028004;28;20185;-75
2021/06/10 11:15:23;;;;;;;2.97;1.00;;;39.90;48.40;;;;;;5022874;28;20236;-76
2021/06/10 11:17:55;;;;;;;5.07;1.20;;;40.50;48.20;;;;;;5013007;28;20218;-76
2021/06/10 11:20:40;;;;;;;2.80;1.10;;;40.20;49.40;;;;;;5013112;28;20316;-73
2021/06/10 11:23:25;;;;;;;4.07;1.27;;;40.00;46.20;;;;;;5012629;28;20210;-73
2021/06/10 11:25:52;;;;;;;3.58;1.05;;;37.70;48.70;;;;;;5017160;28;20293;-72
2021/06/10 11:28:27;;;;;;;3.67;1.15;;;38.50;50.10;;;;;;5011095;28;20178;-74
2021/06/10 11:31:11;;;;;;;2.15;1.00;;;38.70;48.40;;;;;;5011299;28;20188;-75
2021/06/10 11:33:37;;;;;;;3.15;1.00;;;37.70;49.40;;;;;;5027843;28;20273;-77
2021/06/10 11:36:09;;;;;;;4.35;1.10;;;37.70;48.10;;;;;;5013048;28;20186;-75
2021/06/10 11:38:40;;;;;;;2.45;0.90;;;34.90;48.00;;;;;;5011619;28;20189;-73
2021/06/10 11:41:16;;;;;;;2.33;0.80;;;36.60;50.60;;;;;;5013089;28;20178;-74
2021/06/10 11:43:48;;;;;;;2.40;0.90;;;38.50;49.10;;;;;;5022966;28;20278;-73
2021/06/10 11:46:16;;;;;;;1.80;0.90;;;37.30;45.70;;;;;;5011646;28;20608;-72
2021/06/10 11:48:46;;;;;;;3.47;0.80;;;38.10;44.80;;;;;;5011713;28;20213;-75
2021/06/10 11:51:26;;;;;;;2.80;0.90;;;35.30;46.30;;;;;;5011354;28;20178;-76
2021/06/10 11:53:54;;;;;;;1.80;1.10;;;35.40;49.60;;;;;;5011947;28;20195;-76
2021/06/10 11:56:30;;;;;;;3.42;1.17;;;34.40;52.40;;;;;;5025043;28;20216;-76
2021/06/10 11:59:02;;;;;;;2.83;1.00;;;35.90;51.90;;;;;;5010133;28;20236;-72
2021/06/10 12:01:28;;;;;;;2.47;1.00;;;36.90;48.60;;;;;;5011242;28;20273;-73
2021/06/10 12:03:54;;;;;;;2.20;0.82;;;37.50;50.40;;;;;;5011164;28;20190;-74
2021/06/10 12:06:20;;;;;;;2.35;0.88;;;37.10;48.70;;;;;;5026761;28;20201;-73
2021/06/10 12:08:49;;;;;;;1.40;0.85;;;36.40;49.60;;;;;;5010733;28;20205;-73
2021/06/10 12:11:16;;;;;;;2.88;1.10;;;35.30;49.10;;;;;;5010445;28;20644;-75
2021/06/10 12:13:59;;;;;;;3.58;1.10;;;33.30;50.00;;;;;;5011525;28;20197;-76
2021/06/10 12:16:25;;;;;;;1.85;1.00;;;31.70;53.30;;;;;;5011007;28;20178;-75
2021/06/10 12:18:52;;;;;;;2.35;0.90;;;31.70;54.70;;;;;;5013136;28;20616;-75
2021/06/10 12:21:20;;;;;;;3.05;1.00;;;31.80;52.70;;;;;;5011501;28;20190;-77
2021/06/10 12:23:51;;;;;;;2.20;1.13;;;31.20;53.20;;;;;;5012355;28;20181;-76
2021/06/10 12:26:17;;;;;;;4.22;1.23;;;31.00;56.50;;;;;;5011492;28;20213;-75
2021/06/10 12:28:46;;;;;;;3.38;1.35;;;31.00;55.60;;;;;;5011501;28;20595;-73
2021/06/10 12:31:16;;;;;;;3.05;1.20;;;30.20;56.90;;;;;;5010263;28;20532;-72
2021/06/10 12:33:49;;;;;;;3.17;1.58;;;30.10;58.00;;;;;;5011670;28;20174;-74
2021/06/10 12:36:19;;;;;;;4.78;1.20;;;29.10;59.70;;;;;;5012381;28;20178;-75
2021/06/10 12:38:55;;;;;;;2.78;1.50;;;28.90;59.80;;;;;;5026220;28;20202;-77
2021/06/10 12:41:41;;;;;;;3.42;1.48;;;28.10;62.70;;;;;;5026141;28;20293;-72
2021/06/10 12:44:13;;;;;;;4.82;1.60;;;27.50;64.50;;;;;;5010589;28;20194;-73
2021/06/10 12:46:52;;;;;;;4.13;1.85;;;27.90;66.70;;;;;;5027797;28;20194;-76
2021/06/10 12:49:38;;;;;;;3.22;1.80;;;28.00;67.50;;;;;;5011519;28;20267;-76
2021/06/10 12:52:11;;;;;;;3.65;1.63;;;28.10;66.70;;;;;;5024552;28;20221;-76
2021/06/10 12:54:37;;;;;;;4.35;1.50;;;28.50;68.70;;;;;;5028873;28;20186;-77
2021/06/10 12:57:04;;;;;;;3.28;1.50;;;29.00;66.90;;;;;;5009711;28;20182;-72